Time;durP1;ratioP1;P1;durP2;ratioP2;P2;SDS_P1;SDS_P2;PMS_P1;PMS_P2;Temp;Humidity;BMP_temperature;BMP_pressure;BME280_temperature;BME280_humidity;BME280_pressure;Samples;Min_cycle;Max_cycle;Signal;HPM_P1;HPM_P2
2022/04/29 00:00:11;;;;;;;6.00;1.38;;;;;;;5.59;74.01;102376.47;6008533;28;20034;-67
2022/04/29 00:03:09;;;;;;;10.43;1.50;;;;;;;5.48;74.70;102384.03;6014775;28;20030;-67
2022/04/29 00:06:05;;;;;;;3.20;1.50;;;;;;;5.31;74.46;102379.53;6007153;28;20035;-68
2022/04/29 00:09:00;;;;;;;12.75;1.50;;;;;;;5.43;74.97;102380.75;6006952;28;20034;-68
2022/04/29 00:11:56;;;;;;;3.65;1.40;;;;;;;5.32;74.38;102364.63;6006576;28;20518;-68
2022/04/29 00:14:51;;;;;;;4.70;1.50;;;;;;;5.37;75.45;102378.41;6011902;28;20041;-67
2022/04/29 00:17:47;;;;;;;7.10;1.70;;;;;;;5.35;75.42;102375.81;6013624;28;20038;-68
2022/04/29 00:20:42;;;;;;;3.38;1.50;;;;;;;5.07;77.23;102369.31;6011569;28;20030;-68
2022/04/29 00:23:38;;;;;;;6.17;1.50;;;;;;;5.00;77.36;102383.66;6007230;28;20037;-68
2022/04/29 00:26:33;;;;;;;5.10;1.65;;;;;;;4.88;78.12;102373.69;6007246;28;20034;-67
2022/04/29 00:29:28;;;;;;;7.83;2.00;;;;;;;4.85;78.61;102373.81;6010178;28;20512;-67
2022/04/29 00:32:24;;;;;;;4.33;1.50;;;;;;;4.83;79.08;102376.53;6013271;28;20034;-68
2022/04/29 00:35:19;;;;;;;7.63;2.10;;;;;;;4.96;78.90;102384.69;6014776;28;20101;-68
2022/04/29 00:38:17;;;;;;;12.53;2.33;;;;;;;4.91;78.37;102386.69;6007397;28;20043;-67
2022/04/29 00:41:20;;;;;;;5.75;2.08;;;;;;;4.67;80.65;102388.63;6008208;28;20086;-69
2022/04/29 00:44:15;;;;;;;4.05;1.40;;;;;;;4.66;80.48;102379.91;6009326;28;20491;-68
2022/04/29 00:47:19;;;;;;;4.82;1.48;;;;;;;5.52;81.89;102374.22;6007260;28;20069;-67
2022/04/29 00:50:16;;;;;;;5.85;2.00;;;;;;;5.85;76.63;102370.81;6005447;28;20038;-68
2022/04/29 00:53:12;;;;;;;2.88;1.38;;;;;;;5.41;77.76;102369.44;6012586;28;20453;-68
2022/04/29 00:56:08;;;;;;;6.53;1.70;;;;;;;5.15;77.43;102368.03;6015244;28;20037;-68
2022/04/29 00:59:09;;;;;;;4.45;1.52;;;;;;;4.96;78.20;102361.91;6010360;28;20027;-68
2022/04/29 01:02:08;;;;;;;9.35;1.50;;;;;;;4.74;79.10;102376.94;6009647;28;20537;-67
2022/04/29 01:05:05;;;;;;;6.47;1.75;;;;;;;4.76;80.31;102368.06;6011547;28;20023;-67
2022/04/29 01:08:01;;;;;;;4.60;1.77;;;;;;;4.75;80.40;102370.75;5995597;28;20464;-68
2022/04/29 01:10:56;;;;;;;5.88;2.20;;;;;;;4.58;80.03;102378.53;6015751;28;20041;-68
2022/04/29 01:13:53;;;;;;;4.72;1.83;;;;;;;4.40;80.52;102371.44;6007439;28;20039;-67
2022/04/29 01:16:48;;;;;;;6.50;2.55;;;;;;;4.31;81.79;102383.19;6007648;28;20097;-67
2022/04/29 01:19:43;;;;;;;5.13;1.70;;;;;;;4.46;82.15;102386.91;6005522;28;20462;-67
2022/04/29 01:22:39;;;;;;;5.10;1.65;;;;;;;5.05;82.22;102368.53;6011960;28;20034;-68
2022/04/29 01:25:34;;;;;;;6.18;1.85;;;;;;;4.66;80.95;102358.88;6010736;28;20082;-67
2022/04/29 01:28:30;;;;;;;7.60;1.83;;;;;;;4.75;81.36;102369.00;6005657;28;20379;-68
2022/04/29 01:31:27;;;;;;;6.07;2.58;;;;;;;4.47;81.62;102360.59;6004938;28;20359;-68
2022/04/29 01:34:23;;;;;;;4.97;1.92;;;;;;;4.36;82.52;102359.34;6029384;28;20058;-68
2022/04/29 01:37:18;;;;;;;7.80;1.80;;;;;;;4.32;82.30;102369.13;6005410;28;20193;-67
2022/04/29 01:40:14;;;;;;;4.83;1.70;;;;;;;4.27;81.95;102371.09;6005640;28;20085;-68
2022/04/29 01:43:09;;;;;;;6.65;2.13;;;;;;;4.24;82.89;102355.47;6010226;28;20457;-68
2022/04/29 01:46:05;;;;;;;6.93;1.95;;;;;;;4.32;82.75;102353.38;6007701;28;20523;-68
2022/04/29 01:49:00;;;;;;;6.83;2.20;;;;;;;4.30;83.13;102349.97;6005016;28;20065;-68
2022/04/29 01:51:57;;;;;;;4.80;1.80;;;;;;;4.84;81.68;102351.09;6005885;28;20058;-67
2022/04/29 01:54:52;;;;;;;5.95;1.70;;;;;;;4.48;81.17;102338.69;6009077;28;20505;-67
2022/04/29 01:57:50;;;;;;;5.23;1.67;;;;;;;4.33;81.53;102349.84;6004966;28;20039;-68
2022/04/29 02:00:46;;;;;;;6.13;2.10;;;;;;;4.19;82.56;102353.06;6002833;28;20298;-67
2022/04/29 02:03:41;;;;;;;6.53;2.43;;;;;;;4.11;83.55;102349.91;6005400;28;20117;-68
2022/04/29 02:06:38;;;;;;;4.40;2.13;;;;;;;4.05;83.22;102347.53;6004361;28;20027;-67
2022/04/29 02:09:33;;;;;;;7.57;2.17;;;;;;;4.22;83.39;102339.78;6000459;28;20035;-66
2022/04/29 02:12:28;;;;;;;7.80;2.55;;;;;;;4.50;82.37;102344.72;6003900;28;20042;-67
2022/04/29 02:15:24;;;;;;;6.97;2.10;;;;;;;4.47;81.84;102339.59;6004936;28;20034;-67
2022/04/29 02:18:19;;;;;;;7.18;2.20;;;;;;;4.41;81.92;102326.72;6015114;28;20379;-68
2022/04/29 02:21:14;;;;;;;9.27;2.13;;;;;;;4.26;82.18;102327.41;6002035;28;20047;-68
2022/04/29 02:24:10;;;;;;;8.37;2.10;;;;;;;4.19;83.41;102325.94;5994857;28;20433;-68
2022/04/29 02:27:07;;;;;;;5.17;2.30;;;;;;;4.15;83.61;102327.00;6004123;28;20280;-68
2022/04/29 02:30:03;;;;;;;7.22;2.03;;;;;;;4.29;83.37;102332.53;6005142;28;20039;-67
2022/04/29 02:32:58;;;;;;;11.27;2.90;;;;;;;4.41;83.80;102324.09;6007600;28;20037;-68
2022/04/29 02:35:54;;;;;;;10.97;2.07;;;;;;;4.63;82.42;102316.97;6003991;28;20043;-67
2022/04/29 02:38:50;;;;;;;4.65;2.15;;;;;;;4.52;83.16;102319.22;6003546;28;20030;-67
2022/04/29 02:41:45;;;;;;;6.80;2.27;;;;;;;4.38;84.44;102320.75;6014744;28;20031;-66
2022/04/29 02:44:41;;;;;;;7.05;2.22;;;;;;;4.58;84.88;102308.44;6013782;28;20034;-68
2022/04/29 02:47:36;;;;;;;6.87;2.20;;;;;;;4.74;82.41;102309.47;6003648;28;20042;-66
2022/04/29 02:50:31;;;;;;;12.03;2.80;;;;;;;4.59;82.78;102319.81;6006867;28;20270;-67
2022/04/29 02:53:27;;;;;;;10.23;2.33;;;;;;;4.47;83.39;102321.22;6010603;28;20114;-68
2022/04/29 02:56:22;;;;;;;9.85;2.78;;;;;;;4.30;84.91;102321.09;6003776;28;20489;-68
2022/04/29 02:59:19;;;;;;;7.00;2.07;;;;;;;4.35;84.93;102316.47;6008548;28;20034;-68
2022/04/29 03:02:14;;;;;;;7.10;2.08;;;;;;;4.34;85.34;102313.94;6008748;28;20065;-67
2022/04/29 03:05:09;;;;;;;8.03;2.53;;;;;;;4.17;85.59;102317.28;6009326;28;20113;-67
2022/04/29 03:08:05;;;;;;;13.93;2.23;;;;;;;4.15;85.87;102314.75;6013316;28;20578;-67
2022/04/29 03:11:01;;;;;;;9.25;2.58;;;;;;;4.36;86.63;102314.72;6002373;28;20077;-67
2022/04/29 03:13:56;;;;;;;6.88;2.40;;;;;;;4.23;85.74;102309.16;6004880;28;20053;-67
2022/04/29 03:16:51;;;;;;;8.53;3.17;;;;;;;4.30;86.33;102307.94;6004595;28;20538;-68
2022/04/29 03:19:47;;;;;;;9.77;3.00;;;;;;;4.18;85.29;102303.25;6008410;28;20038;-67
2022/04/29 03:22:42;;;;;;;10.50;2.40;;;;;;;4.13;85.90;102306.06;6011515;28;20052;-67
2022/04/29 03:25:37;;;;;;;6.70;2.50;;;;;;;4.04;87.39;102300.34;6003155;28;20031;-67
2022/04/29 03:28:33;;;;;;;6.57;2.58;;;;;;;4.05;86.32;102302.06;6002577;28;20065;-67
2022/04/29 03:31:28;;;;;;;7.70;2.33;;;;;;;4.03;87.19;102304.75;6013380;28;20130;-68
2022/04/29 03:34:24;;;;;;;7.33;2.47;;;;;;;3.96;87.43;102294.59;6007202;28;20569;-68
2022/04/29 03:37:20;;;;;;;9.68;3.13;;;;;;;3.97;87.63;102291.03;6002910;28;20046;-67
2022/04/29 03:40:15;;;;;;;5.80;2.43;;;;;;;3.97;86.85;102293.63;6002120;28;20030;-66
2022/04/29 03:43:12;;;;;;;5.83;2.77;;;;;;;3.91;87.60;102289.53;6004748;28;20063;-67
2022/04/29 03:46:07;;;;;;;9.77;2.85;;;;;;;3.96;87.22;102284.09;6002609;28;20031;-67
2022/04/29 03:52:16;;;;;;;7.45;2.88;;;;;;;3.86;87.48;102291.47;6003989;28;20030;-67
2022/04/29 03:55:13;;;;;;;10.00;4.38;;;;;;;3.99;88.21;102281.34;6002082;28;20463;-67
2022/04/29 03:58:08;;;;;;;10.35;2.67;;;;;;;3.99;87.58;102286.59;6002383;28;20027;-68
2022/04/29 04:01:03;;;;;;;10.73;2.83;;;;;;;3.94;88.52;102283.31;6001576;28;20041;-68
2022/04/29 04:03:59;;;;;;;10.50;3.03;;;;;;;3.97;88.59;102284.00;6002238;28;20030;-67
2022/04/29 04:07:01;;;;;;;7.47;2.80;;;;;;;4.08;88.43;102278.28;6001072;28;20041;-67
2022/04/29 04:09:56;;;;;;;10.77;2.88;;;;;;;4.23;87.12;102269.78;6002235;28;20114;-67
2022/04/29 04:12:52;;;;;;;9.50;3.03;;;;;;;4.13;87.54;102268.47;6001882;28;20081;-68
2022/04/29 04:15:49;;;;;;;7.38;2.65;;;;;;;4.11;87.38;102281.66;6002369;28;20038;-67
2022/04/29 04:18:44;;;;;;;9.93;3.50;;;;;;;4.05;87.82;102281.91;6006411;28;20039;-67
2022/04/29 04:21:40;;;;;;;10.32;3.72;;;;;;;3.97;87.81;102284.00;6002820;28;20039;-67
2022/04/29 04:24:35;;;;;;;8.18;3.08;;;;;;;3.98;87.75;102287.50;6002161;28;20035;-68
2022/04/29 04:27:31;;;;;;;10.80;2.70;;;;;;;3.89;88.53;102287.88;6008378;28;20045;-67
2022/04/29 04:30:26;;;;;;;10.80;2.90;;;;;;;3.84;88.17;102293.31;6001507;28;20457;-68
2022/04/29 04:33:22;;;;;;;6.85;2.55;;;;;;;3.78;88.45;102292.75;6007385;28;20736;-68
2022/04/29 04:36:17;;;;;;;8.47;3.27;;;;;;;3.72;89.15;102306.09;6012479;28;20039;-68
2022/04/29 04:39:12;;;;;;;9.50;2.90;;;;;;;3.65;89.54;102309.88;6001922;28;20136;-67
2022/04/29 04:42:08;;;;;;;8.20;3.07;;;;;;;3.66;90.23;102307.22;6001542;28;20408;-67
2022/04/29 04:45:03;;;;;;;5.00;2.67;;;;;;;3.75;90.24;102309.44;6006554;28;20042;-67
2022/04/29 04:47:58;;;;;;;11.77;3.88;;;;;;;3.83;89.71;102309.13;6006203;28;20035;-68
2022/04/29 04:50:54;;;;;;;11.77;3.63;;;;;;;3.99;90.46;102307.56;6005870;28;20030;-68
2022/04/29 04:53:49;;;;;;;9.25;2.63;;;;;;;4.35;89.66;102303.34;6006200;28;20117;-66
2022/04/29 04:56:45;;;;;;;12.67;4.37;;;;;;;4.44;89.51;102304.72;6006021;28;20041;-67
2022/04/29 04:59:40;;;;;;;8.17;2.40;;;;;;;4.75;87.93;102311.19;6006315;28;20498;-68
2022/04/29 05:02:39;;;;;;;10.67;3.10;;;;;;;4.73;86.51;102299.88;6006729;28;20039;-68
2022/04/29 05:05:34;;;;;;;7.60;3.08;;;;;;;4.85;86.91;102305.50;6005916;28;20177;-67
2022/04/29 05:08:29;;;;;;;12.57;3.20;;;;;;;4.81;85.95;102310.03;6004305;28;20486;-67
2022/04/29 05:11:24;;;;;;;10.37;3.67;;;;;;;5.01;85.83;102302.09;6009378;28;20117;-68
2022/04/29 05:14:20;;;;;;;13.03;3.83;;;;;;;5.29;86.69;102302.50;6006446;28;20035;-68
2022/04/29 05:17:15;;;;;;;11.10;4.13;;;;;;;6.19;84.67;102300.69;6010607;28;20549;-67
2022/04/29 05:20:12;;;;;;;11.57;3.37;;;;;;;6.24;82.32;102293.38;6005679;28;20042;-67
2022/04/29 05:23:08;;;;;;;12.77;4.57;;;;;;;6.67;81.16;102292.81;6002553;28;20114;-67
2022/04/29 05:26:03;;;;;;;10.27;3.13;;;;;;;7.11;78.00;102287.78;6005266;28;20043;-67
2022/04/29 05:28:58;;;;;;;9.75;3.70;;;;;;;6.60;77.94;102286.19;6012203;28;20368;-68
2022/04/29 05:31:54;;;;;;;12.50;3.77;;;;;;;6.35;79.92;102294.53;6012912;28;20034;-67
2022/04/29 05:34:49;;;;;;;12.33;3.03;;;;;;;6.56;79.70;102300.44;6005515;28;20041;-67
2022/04/29 05:37:45;;;;;;;7.23;3.90;;;;;;;6.93;79.84;102305.44;6004318;28;20282;-67
2022/04/29 05:43:53;;;;;;;;;;;;;;;6.56;79.35;102313.63;6001255;28;20411;-67
2022/04/29 05:46:49;;;;;;;14.13;4.23;;;;;;;6.40;80.73;102310.09;6005182;28;19918;-68
2022/04/29 05:49:44;;;;;;;7.80;3.63;;;;;;;6.37;80.72;102312.88;6016741;28;20080;-67
2022/04/29 05:52:40;;;;;;;10.52;3.85;;;;;;;6.31;81.17;102321.97;6003933;28;20038;-67
2022/04/29 05:55:36;;;;;;;11.27;3.70;;;;;;;6.28;82.42;102313.34;6004291;28;20046;-66
2022/04/29 05:58:31;;;;;;;9.90;3.95;;;;;;;6.18;81.95;102322.66;6013715;28;20066;-68
2022/04/29 06:01:26;;;;;;;8.30;4.00;;;;;;;6.15;82.65;102314.91;6005244;28;20041;-67
2022/04/29 06:04:21;;;;;;;12.53;3.93;;;;;;;6.29;83.03;102320.34;6009759;28;20030;-68
2022/04/29 06:07:17;;;;;;;15.67;3.87;;;;;;;6.51;82.86;102308.59;6004568;28;20038;-68
2022/04/29 06:10:12;;;;;;;10.35;4.18;;;;;;;6.55;81.38;102304.88;6019381;28;20035;-67
2022/04/29 06:13:11;;;;;;;10.93;4.57;;;;;;;6.71;82.21;102309.34;6005855;28;20034;-67
2022/04/29 06:16:06;;;;;;;9.45;3.90;;;;;;;7.28;80.08;102308.81;6007314;28;20049;-67
2022/04/29 06:19:01;;;;;;;13.10;4.53;;;;;;;7.25;79.37;102302.84;6008134;28;20038;-67
2022/04/29 06:21:57;;;;;;;20.92;4.30;;;;;;;7.64;77.23;102303.19;6003979;28;20062;-67
2022/04/29 06:24:52;;;;;;;8.60;3.73;;;;;;;7.54;78.78;102297.59;6005332;28;20394;-67
2022/04/29 06:27:47;;;;;;;16.23;4.03;;;;;;;8.05;75.48;102295.50;6005110;28;20039;-66
2022/04/29 06:30:43;;;;;;;12.27;4.57;;;;;;;7.85;76.11;102296.69;6012602;28;20026;-70
2022/04/29 06:33:40;;;;;;;14.10;4.03;;;;;;;8.40;74.15;102299.56;6003898;28;20479;-67
2022/04/29 06:36:36;;;;;;;14.50;3.92;;;;;;;7.79;76.52;102302.31;6004572;28;20035;-67
2022/04/29 06:39:31;;;;;;;10.30;3.80;;;;;;;7.87;77.09;102300.09;6004262;28;20061;-67
2022/04/29 06:42:26;;;;;;;10.77;3.90;;;;;;;7.79;76.32;102299.69;6008933;28;20117;-67
2022/04/29 06:45:22;;;;;;;12.53;4.00;;;;;;;7.75;76.83;102306.06;6006476;28;20046;-67
2022/04/29 06:48:17;;;;;;;11.65;3.97;;;;;;;7.94;77.78;102305.84;6004099;28;20483;-67
2022/04/29 06:51:12;;;;;;;10.63;4.20;;;;;;;8.07;76.60;102298.94;6002810;28;20435;-67
2022/04/29 06:54:08;;;;;;;10.50;3.92;;;;;;;8.35;75.83;102299.00;6004632;28;20023;-67
2022/04/29 06:57:03;;;;;;;13.47;4.10;;;;;;;8.93;74.97;102302.41;6008824;28;20129;-68
2022/04/29 06:59:59;;;;;;;13.25;4.40;;;;;;;9.56;72.01;102289.47;6017688;28;20277;-67
2022/04/29 07:02:56;;;;;;;14.73;3.83;;;;;;;10.81;68.03;102291.53;6019554;28;20100;-67
2022/04/29 07:05:52;;;;;;;14.57;4.75;;;;;;;10.92;64.02;102284.50;6007400;28;20030;-67
2022/04/29 07:08:48;;;;;;;11.35;4.13;;;;;;;10.27;67.11;102278.53;6010296;28;20027;-67
2022/04/29 07:11:43;;;;;;;12.53;4.20;;;;;;;10.65;66.37;102289.94;6002285;28;20046;-67
2022/04/29 07:14:38;;;;;;;9.30;3.67;;;;;;;10.92;64.68;102278.34;6011353;28;20050;-66
2022/04/29 07:17:34;;;;;;;8.93;3.50;;;;;;;11.64;62.07;102283.59;6012989;28;20042;-68
2022/04/29 07:20:29;;;;;;;10.80;5.17;;;;;;;11.69;60.89;102280.59;6008282;28;20437;-68
2022/04/29 07:23:24;;;;;;;9.13;4.30;;;;;;;11.62;62.00;102276.69;6003639;28;20042;-68
2022/04/29 07:26:20;;;;;;;9.40;4.10;;;;;;;12.55;58.88;102265.94;6012214;28;20041;-67
2022/04/29 07:29:15;;;;;;;9.88;3.88;;;;;;;12.13;59.18;102274.59;6008548;28;20498;-66
2022/04/29 07:32:11;;;;;;;15.57;4.13;;;;;;;10.83;62.42;102274.53;6002312;28;20043;-67
2022/04/29 07:41:46;;;;;;;12.07;4.40;;;;;;;11.45;61.19;102267.31;6007659;28;20034;-67
2022/04/29 07:44:41;;;;;;;14.98;4.10;;;;;;;11.34;61.47;102269.91;6003471;28;20085;-68
2022/04/29 07:47:36;;;;;;;14.37;3.93;;;;;;;11.54;60.43;102269.28;6007046;28;20042;-67
2022/04/29 07:50:32;;;;;;;7.57;3.80;;;;;;;11.81;59.60;102263.75;6006260;28;20045;-67
2022/04/29 07:53:28;;;;;;;12.77;4.47;;;;;;;11.67;60.22;102262.09;6004301;28;20595;-67
2022/04/29 07:56:23;;;;;;;10.55;3.88;;;;;;;12.03;58.89;102258.50;6003141;28;20182;-69
2022/04/29 07:59:19;;;;;;;15.63;4.37;;;;;;;12.07;58.43;102253.78;6001496;28;20046;-67
2022/04/29 08:02:14;;;;;;;11.38;4.18;;;;;;;11.86;59.91;102254.47;6003296;28;20038;-67
2022/04/29 08:05:10;;;;;;;14.30;4.50;;;;;;;11.91;59.70;102252.31;6006354;28;20059;-67
2022/04/29 08:08:05;;;;;;;12.97;4.37;;;;;;;12.43;58.29;102250.94;6000255;28;20506;-68
2022/04/29 08:11:01;;;;;;;11.30;4.65;;;;;;;12.66;57.70;102257.97;5998360;28;20394;-67
2022/04/29 08:13:56;;;;;;;11.88;3.95;;;;;;;13.26;56.96;102246.88;6003879;28;20400;-68
2022/04/29 08:16:51;;;;;;;14.33;4.10;;;;;;;12.35;58.68;102269.31;6005148;28;20041;-68
2022/04/29 08:19:50;;;;;;;17.10;4.53;;;;;;;12.61;58.09;102252.13;6009393;28;20038;-68
2022/04/29 08:22:45;;;;;;;10.07;4.38;;;;;;;13.11;56.82;102256.13;6006044;28;20357;-67
2022/04/29 08:25:41;;;;;;;13.75;3.83;;;;;;;13.49;55.88;102260.97;6006811;28;20478;-67
2022/04/29 08:28:36;;;;;;;11.70;4.60;;;;;;;13.75;55.19;102254.31;6008510;28;20050;-67
2022/04/29 08:31:31;;;;;;;11.37;4.43;;;;;;;13.72;56.44;102259.91;6009954;28;20043;-66
2022/04/29 08:34:27;;;;;;;13.60;4.07;;;;;;;13.87;55.65;102257.75;6014209;28;20061;-67
2022/04/29 08:37:22;;;;;;;12.40;4.67;;;;;;;13.64;55.95;102249.03;6012422;28;20114;-67
2022/04/29 08:40:17;;;;;;;9.87;4.97;;;;;;;13.96;54.64;102252.50;6005218;28;20093;-66
2022/04/29 08:43:14;;;;;;;11.57;4.33;;;;;;;14.34;54.63;102257.25;6011476;28;20289;-67
2022/04/29 08:46:10;;;;;;;9.23;4.40;;;;;;;14.42;55.08;102248.59;6018386;28;20031;-68
2022/04/29 08:49:06;;;;;;;11.53;4.57;;;;;;;14.23;53.84;102250.16;6012727;28;20051;-67
2022/04/29 08:52:02;;;;;;;9.50;4.13;;;;;;;14.34;54.73;102245.72;6013532;28;20490;-67
2022/04/29 09:01:26;;;;;;;11.90;4.95;;;;;;;15.00;51.63;102238.97;6019883;28;20061;-66
2022/04/29 09:04:22;;;;;;;12.88;4.20;;;;;;;14.79;52.82;102231.88;6007152;28;20066;-67
2022/04/29 09:07:17;;;;;;;12.95;4.72;;;;;;;14.78;52.99;102224.00;6011249;28;20048;-67
2022/04/29 09:10:12;;;;;;;11.57;4.60;;;;;;;15.21;51.61;102226.34;6014879;28;20031;-66
2022/04/29 09:13:12;;;;;;;10.90;4.77;;;;;;;15.34;50.82;102216.22;6006594;28;20481;-68
2022/04/29 09:16:12;;;;;;;10.45;4.28;;;;;;;15.46;50.11;102221.31;6016799;28;20042;-68
2022/04/29 09:19:09;;;;;;;14.77;4.47;;;;;;;15.47;51.64;102216.81;6005952;28;20089;-68
2022/04/29 09:22:09;;;;;;;16.05;4.28;;;;;;;16.01;49.12;102222.38;6008070;28;20093;-67
2022/04/29 09:25:05;;;;;;;9.10;4.30;;;;;;;15.96;47.78;102213.09;6023892;28;20080;-68
2022/04/29 09:28:01;;;;;;;14.65;5.05;;;;;;;16.12;48.54;102221.38;6010328;28;20109;-67
2022/04/29 09:30:57;;;;;;;13.00;5.30;;;;;;;16.18;48.56;102218.13;6007990;28;20031;-68
2022/04/29 09:33:56;;;;;;;11.10;5.03;;;;;;;16.53;48.16;102207.59;6014808;28;20045;-69
2022/04/29 09:36:52;;;;;;;11.40;4.70;;;;;;;16.43;47.25;102212.13;6012942;28;20780;-67
2022/04/29 09:39:51;;;;;;;13.17;4.90;;;;;;;16.41;48.27;102203.41;6004145;28;20042;-67
2022/04/29 09:42:46;;;;;;;19.45;4.90;;;;;;;16.61;47.85;102196.97;6006016;28;20077;-67
2022/04/29 09:45:41;;;;;;;17.77;5.47;;;;;;;16.63;48.51;102207.56;6011205;28;20030;-68
2022/04/29 09:48:55;;;;;;;12.17;4.97;;;;;;;16.79;46.03;102201.53;6006630;28;20042;-68
2022/04/29 09:51:52;;;;;;;12.73;5.35;;;;;;;16.26;47.21;102199.50;6005076;28;20035;-67
2022/04/29 09:54:49;;;;;;;12.18;4.90;;;;;;;16.87;45.90;102194.44;6016566;28;20054;-68
2022/04/29 09:57:49;;;;;;;12.13;5.10;;;;;;;17.23;45.40;102195.28;6010953;28;20055;-67
2022/04/29 10:00:44;;;;;;;12.45;5.10;;;;;;;16.99;44.88;102187.00;6010909;28;20038;-67
2022/04/29 10:03:40;;;;;;;13.30;5.17;;;;;;;17.31;45.44;102190.03;6007716;28;20050;-68
2022/04/29 10:06:37;;;;;;;12.85;4.82;;;;;;;17.85;44.28;102173.72;6013814;28;20068;-67
2022/04/29 10:09:34;;;;;;;23.77;4.85;;;;;;;17.35;44.73;102175.31;6030138;28;20454;-68
2022/04/29 10:12:30;;;;;;;9.98;4.88;;;;;;;18.03;43.15;102162.94;6004662;28;20043;-69
2022/04/29 10:15:25;;;;;;;18.63;5.45;;;;;;;18.17;43.48;102159.66;6007556;28;20422;-67
2022/04/29 10:21:38;;;;;;;9.95;5.30;;;;;;;17.92;43.22;102155.16;6009484;28;20019;-67
2022/04/29 10:24:34;;;;;;;11.52;5.32;;;;;;;18.12;42.85;102161.16;6010203;28;20071;-68
2022/04/29 10:27:31;;;;;;;12.82;4.95;;;;;;;18.41;42.01;102167.84;6009452;28;20042;-68
2022/04/29 10:30:37;;;;;;;9.93;4.38;;;;;;;19.07;41.88;102163.53;6002209;28;20035;-68
2022/04/29 10:33:34;;;;;;;11.55;5.20;;;;;;;18.55;40.16;102150.28;6008818;28;20389;-68
2022/04/29 10:36:29;;;;;;;12.93;4.25;;;;;;;19.26;40.09;102152.47;6009047;28;20508;-68
2022/04/29 10:39:25;;;;;;;16.47;4.77;;;;;;;19.48;39.13;102141.06;6005254;28;20045;-69
2022/04/29 10:42:20;;;;;;;9.70;4.63;;;;;;;19.14;38.90;102154.63;6003907;28;20829;-68
2022/04/29 10:45:15;;;;;;;14.33;5.23;;;;;;;19.58;38.20;102155.16;6004488;28;20351;-68
2022/04/29 10:48:32;;;;;;;12.43;5.55;;;;;;;19.00;38.78;102157.97;6003814;28;20479;-68
2022/04/29 10:51:28;;;;;;;12.75;4.68;;;;;;;18.23;40.18;102148.28;6014334;28;20039;-67
2022/04/29 10:54:40;;;;;;;10.32;4.53;;;;;;;18.30;41.09;102152.00;6005611;28;20364;-69
2022/04/29 10:57:43;;;;;;;15.27;4.25;;;;;;;18.71;41.32;102147.66;6003842;28;20042;-67
2022/04/29 11:00:39;;;;;;;12.65;5.40;;;;;;;18.94;40.14;102137.13;6001655;28;20493;-67
2022/04/29 11:03:38;;;;;;;14.20;4.97;;;;;;;18.63;39.37;102144.94;6003933;28;20035;-68
2022/04/29 11:06:41;;;;;;;12.75;4.97;;;;;;;19.23;38.47;102132.13;6003663;28;20077;-68
2022/04/29 11:09:45;;;;;;;13.10;5.15;;;;;;;19.15;38.01;102133.94;6002101;28;20031;-68
2022/04/29 11:12:42;;;;;;;12.68;4.90;;;;;;;19.85;37.14;102116.25;6003683;28;20035;-68
2022/04/29 11:15:42;;;;;;;9.88;4.40;;;;;;;20.04;37.35;102116.72;6008823;28;20118;-68
2022/04/29 11:18:40;;;;;;;11.10;4.43;;;;;;;18.78;38.42;102113.72;6004729;28;20123;-68
2022/04/29 11:24:51;;;;;;;14.60;5.20;;;;;;;19.46;37.06;102108.06;6007175;28;20072;-68
2022/04/29 11:27:50;;;;;;;11.60;4.72;;;;;;;19.46;37.42;102105.38;6010852;28;20035;-67
2022/04/29 11:30:49;;;;;;;11.52;5.15;;;;;;;19.86;36.68;102102.63;6014109;28;20033;-67
2022/04/29 11:33:44;;;;;;;11.30;5.10;;;;;;;19.26;37.15;102104.03;6002697;28;20031;-68
2022/04/29 11:36:40;;;;;;;12.27;5.20;;;;;;;19.22;36.96;102102.69;6002189;28;20049;-68
2022/04/29 11:39:36;;;;;;;10.00;5.28;;;;;;;19.25;37.66;102099.66;6006529;28;20110;-66
2022/04/29 11:42:31;;;;;;;10.40;5.50;;;;;;;19.00;38.96;102088.03;6008680;28;20034;-67
2022/04/29 11:45:26;;;;;;;10.00;5.00;;;;;;;18.85;39.33;102093.25;6005466;28;20525;-67
2022/04/29 11:48:22;;;;;;;13.23;5.43;;;;;;;19.11;38.39;102092.25;6002524;28;20039;-68
2022/04/29 11:51:17;;;;;;;9.67;5.33;;;;;;;19.65;36.91;102088.88;6007501;28;20274;-69
2022/04/29 11:54:12;;;;;;;12.80;5.87;;;;;;;19.58;37.54;102085.19;6010312;28;20053;-67
2022/04/29 11:57:14;;;;;;;12.47;5.00;;;;;;;19.60;37.37;102077.78;6003248;28;20035;-68
2022/04/29 12:00:28;;;;;;;13.00;5.80;;;;;;;19.19;37.71;102076.09;6015706;28;20491;-68
2022/04/29 12:03:25;;;;;;;12.40;5.30;;;;;;;18.72;37.28;102074.09;6002980;28;20131;-67
2022/04/29 12:06:20;;;;;;;12.43;4.50;;;;;;;18.87;37.92;102072.41;6012793;28;20073;-67
2022/04/29 12:09:16;;;;;;;11.80;5.07;;;;;;;18.91;37.39;102063.03;6009448;28;20038;-67
2022/04/29 12:12:30;;;;;;;13.70;5.10;;;;;;;18.90;36.76;102061.34;6003928;28;20026;-67
2022/04/29 12:15:28;;;;;;;9.88;5.10;;;;;;;19.15;36.89;102064.03;6003613;28;20371;-66
2022/04/29 12:18:45;;;;;;;11.20;5.68;;;;;;;19.44;36.36;102054.44;6006658;28;20118;-67
2022/04/29 12:21:53;;;;;;;11.85;5.43;;;;;;;19.50;34.83;102048.38;6002276;28;20094;-68
2022/04/29 12:24:48;;;;;;;13.90;5.22;;;;;;;19.26;36.02;102040.31;6002621;28;20050;-68
2022/04/29 12:27:43;;;;;;;8.85;4.47;;;;;;;20.10;34.42;102045.16;6005100;28;20035;-68
2022/04/29 12:37:28;;;;;;;9.57;4.97;;;;;;;20.44;33.37;102031.34;6010000;28;20027;-68
2022/04/29 12:40:28;;;;;;;10.13;5.03;;;;;;;19.84;34.29;102023.88;6001787;28;20039;-68
2022/04/29 12:43:24;;;;;;;9.50;4.90;;;;;;;19.98;34.34;102020.44;6004047;28;20034;-68
2022/04/29 12:46:22;;;;;;;12.80;4.43;;;;;;;20.32;33.88;102022.00;6004562;28;20049;-68
2022/04/29 12:49:26;;;;;;;11.60;4.90;;;;;;;20.30;32.90;102021.34;6004818;28;20281;-68
2022/04/29 12:52:22;;;;;;;9.00;4.90;;;;;;;20.56;32.85;102016.44;6011619;28;20039;-69
2022/04/29 12:55:17;;;;;;;9.63;4.73;;;;;;;20.92;32.96;102014.81;6001836;28;20574;-68
2022/04/29 12:58:25;;;;;;;12.35;4.70;;;;;;;20.87;32.91;102006.44;6007952;28;20030;-68
2022/04/29 13:01:20;;;;;;;12.32;5.35;;;;;;;21.63;32.20;102006.22;6011026;28;20038;-68
2022/04/29 13:04:15;;;;;;;11.63;4.77;;;;;;;21.38;33.19;102003.94;6020524;28;20371;-68
2022/04/29 13:07:10;;;;;;;9.60;4.60;;;;;;;20.74;34.43;102006.19;6008986;28;20695;-68
2022/04/29 13:10:07;;;;;;;8.03;4.87;;;;;;;20.55;33.62;101995.88;6007356;28;20049;-67
2022/04/29 13:13:02;;;;;;;10.95;4.82;;;;;;;19.92;34.39;101996.91;6005622;28;20619;-68
2022/04/29 13:15:58;;;;;;;14.27;4.80;;;;;;;19.87;34.96;101991.22;6015004;28;20045;-68
2022/04/29 13:18:53;;;;;;;9.77;4.55;;;;;;;19.63;35.31;101990.47;6010024;28;20026;-68
2022/04/29 13:21:49;;;;;;;13.48;4.93;;;;;;;19.32;35.89;101985.81;6011974;28;20028;-67
2022/04/29 13:24:44;;;;;;;9.77;5.03;;;;;;;19.37;36.94;101982.63;6008548;28;20042;-67
2022/04/29 13:27:39;;;;;;;8.50;4.30;;;;;;;19.21;36.31;101982.66;6007751;28;20050;-68
2022/04/29 13:30:35;;;;;;;15.53;5.60;;;;;;;19.12;35.13;101986.38;6025817;28;20038;-68
2022/04/29 13:33:32;;;;;;;7.93;4.30;;;;;;;19.80;35.77;101974.09;6017459;28;20089;-69
2022/04/29 13:36:27;;;;;;;9.65;4.80;;;;;;;19.96;33.91;101968.63;6008265;28;20049;-68
2022/04/29 13:39:22;;;;;;;12.30;4.93;;;;;;;19.84;34.78;101964.63;6008066;28;20054;-68
2022/04/29 13:42:18;;;;;;;10.67;5.43;;;;;;;19.54;35.56;101957.38;6011389;28;20394;-68
2022/04/29 13:45:14;;;;;;;13.88;4.35;;;;;;;19.76;34.56;101956.59;6008511;28;20085;-68
2022/04/29 13:48:09;;;;;;;8.87;4.57;;;;;;;19.66;34.78;101949.75;6004309;28;20042;-67
2022/04/29 13:51:04;;;;;;;11.73;5.60;;;;;;;20.66;33.36;101949.63;6005622;28;20518;-69
2022/04/29 13:54:00;;;;;;;10.07;5.10;;;;;;;20.64;32.82;101955.22;6006012;28;20329;-68
2022/04/29 13:56:58;;;;;;;11.23;5.03;;;;;;;20.73;32.66;101948.75;6004724;28;20031;-68
2022/04/29 13:59:53;;;;;;;11.82;5.40;;;;;;;20.17;33.95;101941.88;6004480;28;20513;-68
2022/04/29 14:02:51;;;;;;;10.20;5.07;;;;;;;19.81;35.44;101931.84;6004355;28;20035;-68
2022/04/29 14:05:47;;;;;;;14.70;5.15;;;;;;;19.51;35.60;101930.81;6014498;28;20510;-67
2022/04/29 14:08:42;;;;;;;8.00;4.50;;;;;;;19.79;35.63;101926.63;6004489;28;20045;-68
2022/04/29 14:11:38;;;;;;;8.23;5.07;;;;;;;19.69;35.01;101928.72;5998476;28;20117;-68